Time;durP1;ratioP1;P1;durP2;ratioP2;P2;SDS_P1;SDS_P2;PMS_P1;PMS_P2;Temp;Humidity;BMP_temperature;BMP_pressure;BME280_temperature;BME280_humidity;BME280_pressure;Samples;Min_cycle;Max_cycle;Signal;HPM_P1;HPM_P2
2021/03/12 00:02:15;;;;;;;69.57;43.70;;;;;;;4.14;73.75;97462.86;2160505;82;21408;-78
2021/03/12 00:05:16;;;;;;;72.73;45.73;;;;;;;4.07;73.79;97471.78;2159451;82;21131;-77
2021/03/12 00:08:17;;;;;;;66.03;42.63;;;;;;;4.03;73.63;97494.52;2160620;82;21269;-79
2021/03/12 00:11:28;;;;;;;61.93;42.27;;;;;;;3.98;73.73;97498.33;2161507;82;21122;-78
2021/03/12 00:14:29;;;;;;;65.07;43.07;;;;;;;3.94;73.77;97510.73;2161481;82;21293;-78
2021/03/12 00:17:40;;;;;;;64.03;42.97;;;;;;;3.90;73.83;97500.34;2161071;82;21150;-78
2021/03/12 00:20:44;;;;;;;58.53;37.97;;;;;;;3.88;73.89;97487.83;2162083;82;21468;-80
2021/03/12 00:23:45;;;;;;;60.93;39.63;;;;;;;3.89;74.11;97489.56;2160978;82;21268;-78
2021/03/12 00:26:46;;;;;;;72.10;44.93;;;;;;;3.89;74.03;97474.08;2160770;82;21497;-78
2021/03/12 00:29:47;;;;;;;65.47;42.10;;;;;;;3.87;73.97;97467.59;2160754;82;21253;-78
2021/03/12 00:32:48;;;;;;;67.07;42.87;;;;;;;3.87;74.05;97474.05;2162899;82;21130;-79
2021/03/12 00:35:51;;;;;;;67.33;43.03;;;;;;;3.86;74.13;97485.22;2162814;82;21610;-78
2021/03/12 00:38:52;;;;;;;59.50;35.33;;;;;;;3.86;74.42;97480.48;2162321;82;21241;-79
2021/03/12 00:41:57;;;;;;;59.53;38.50;;;;;;;3.88;75.10;97477.50;2162556;82;21221;-78
2021/03/12 00:44:58;;;;;;;61.47;39.77;;;;;;;3.89;74.77;97472.36;2165412;81;21249;-79
2021/03/12 00:47:59;;;;;;;57.10;35.33;;;;;;;3.90;74.64;97465.06;2172691;82;21146;-79
2021/03/12 00:51:01;;;;;;;58.87;37.43;;;;;;;3.93;74.88;97473.28;2172731;82;21078;-78
2021/03/12 00:54:02;;;;;;;60.93;38.17;;;;;;;3.95;74.89;97475.46;2172520;82;21213;-78
2021/03/12 00:57:03;;;;;;;65.83;39.67;;;;;;;4.01;74.51;97472.98;2172128;82;21228;-79
2021/03/12 01:00:04;;;;;;;60.53;37.40;;;;;;;4.06;75.00;97480.38;2172398;82;21392;-79
2021/03/12 01:03:06;;;;;;;58.23;37.07;;;;;;;4.10;74.72;97488.61;2172294;82;21110;-79
2021/03/12 01:06:07;;;;;;;62.13;37.03;;;;;;;4.12;74.69;97490.80;2171806;82;21249;-79
2021/03/12 01:09:08;;;;;;;57.80;35.20;;;;;;;4.13;74.75;97484.36;2172463;82;21133;-80
2021/03/12 01:12:09;;;;;;;54.03;33.50;;;;;;;4.21;75.00;97485.77;2173094;82;21134;-79
2021/03/12 01:15:11;;;;;;;56.13;34.17;;;;;;;4.28;75.22;97481.14;2173855;82;21427;-79
2021/03/12 01:18:12;;;;;;;59.17;33.90;;;;;;;4.32;74.87;97486.80;2172738;82;21119;-79
2021/03/12 01:21:16;;;;;;;58.27;35.77;;;;;;;4.35;75.05;97494.63;2171569;82;21280;-79
2021/03/12 01:24:19;;;;;;;61.73;35.13;;;;;;;4.38;74.78;97488.20;2171432;82;21384;-78
2021/03/12 01:27:21;;;;;;;47.37;26.87;;;;;;;4.42;74.54;97483.53;2142118;82;21276;-79
2021/03/12 01:30:23;;;;;;;49.63;30.00;;;;;;;4.44;74.93;97458.58;2117651;82;21277;-79
2021/03/12 01:33:24;;;;;;;53.93;31.60;;;;;;;4.45;74.77;97455.58;2170812;82;21249;-79
2021/03/12 01:36:25;;;;;;;60.70;33.17;;;;;;;4.43;74.75;97458.14;2171780;82;21134;-78
2021/03/12 01:39:27;;;;;;;57.77;32.93;;;;;;;4.43;74.79;97469.77;2172275;82;21118;-78
2021/03/12 01:42:29;;;;;;;55.23;31.83;;;;;;;4.45;74.70;97472.37;2172582;82;21138;-79
2021/03/12 01:45:30;;;;;;;57.30;32.57;;;;;;;4.46;74.96;97462.05;2174396;82;21148;-78
2021/03/12 01:48:33;;;;;;;53.70;33.97;;;;;;;4.48;74.83;97447.44;2179498;82;21415;-78
2021/03/12 01:51:36;;;;;;;50.33;28.87;;;;;;;4.50;74.76;97451.76;2179487;82;21161;-78
2021/03/12 01:54:38;;;;;;;49.10;27.90;;;;;;;4.50;74.87;97464.25;2180223;81;21146;-78
2021/03/12 01:57:39;;;;;;;51.10;29.20;;;;;;;;;;2180000;82;21242;-78
2021/03/12 02:00:40;;;;;;;52.60;29.67;;;;;;;4.56;75.06;97446.25;2180138;82;21106;-77
2021/03/12 02:03:44;;;;;;;55.53;32.40;;;;;;;4.57;74.93;97447.98;2179770;81;21134;-78
2021/03/12 02:06:45;;;;;;;49.60;29.80;;;;;;;4.57;74.80;97452.28;2179825;81;21106;-78
2021/03/12 02:09:49;;;;;;;48.67;25.57;;;;;;;4.57;74.72;97463.48;2179867;81;21260;-77
2021/03/12 02:12:50;;;;;;;48.92;29.15;;;;;;;4.59;74.83;97464.38;2179640;81;21518;-78
2021/03/12 02:15:53;;;;;;;41.00;27.17;;;;;;;4.60;74.49;97443.28;2178984;81;21384;-77
2021/03/12 02:18:54;;;;;;;46.43;29.00;;;;;;;4.62;74.45;97439.86;2179911;81;21106;-78
2021/03/12 02:21:55;;;;;;;51.13;30.83;;;;;;;4.61;74.41;97430.38;2179226;82;21256;-78
2021/03/12 02:24:56;;;;;;;45.10;28.27;;;;;;;4.61;74.43;97438.55;2179691;82;21546;-78
2021/03/12 02:27:58;;;;;;;51.60;29.70;;;;;;;4.59;74.35;97441.12;2178971;82;21292;-78
2021/03/12 02:31:00;;;;;;;43.07;27.00;;;;;;;4.57;74.49;97439.36;2178476;81;21130;-78
2021/03/12 02:34:02;;;;;;;47.60;28.33;;;;;;;4.57;74.63;97431.61;2179833;81;21241;-77
2021/03/12 02:37:03;;;;;;;44.50;26.23;;;;;;;4.58;74.59;97426.46;2180132;82;21122;-78
2021/03/12 02:40:04;;;;;;;43.87;28.20;;;;;;;4.56;74.82;97435.91;2179781;82;21118;-78
2021/03/12 02:43:07;;;;;;;47.37;26.83;;;;;;;4.52;74.50;97423.80;2179233;82;21138;-78
2021/03/12 02:46:08;;;;;;;46.30;28.50;;;;;;;4.48;74.80;97424.19;2178249;82;21142;-77
2021/03/12 02:49:11;;;;;;;45.70;26.93;;;;;;;4.43;74.73;97433.59;2178441;81;21130;-78
2021/03/12 02:52:12;;;;;;;48.30;28.50;;;;;;;4.39;74.73;97448.61;2178991;82;21126;-78
2021/03/12 02:55:13;;;;;;;41.17;26.70;;;;;;;4.39;74.87;97459.37;2179100;81;21173;-78
2021/03/12 02:58:15;;;;;;;45.50;27.03;;;;;;;4.38;74.87;97462.37;2179633;82;21084;-78
2021/03/12 03:01:16;;;;;;;46.37;28.37;;;;;;;4.36;75.07;97459.32;2179845;81;21110;-78
2021/03/12 03:04:17;;;;;;;45.00;26.40;;;;;;;4.38;75.12;97456.34;2180320;82;21137;-78
2021/03/12 03:07:24;;;;;;;48.70;30.27;;;;;;;4.36;75.47;97467.94;2180243;82;21260;-78
2021/03/12 03:10:25;;;;;;;47.17;28.30;;;;;;;4.36;75.33;97458.90;2180183;82;21122;-78
2021/03/12 03:13:27;;;;;;;43.10;27.33;;;;;;;4.44;75.30;97453.84;2180167;82;21114;-77
2021/03/12 03:16:28;;;;;;;42.13;26.93;;;;;;;4.46;75.33;97455.59;2179772;81;21130;-78
2021/03/12 03:19:30;;;;;;;53.23;29.10;;;;;;;4.49;75.40;97465.10;2179481;81;21121;-77
2021/03/12 03:22:31;;;;;;;44.33;26.80;;;;;;;4.53;75.32;97460.42;2179366;82;21384;-77
2021/03/12 03:25:32;;;;;;;40.90;25.27;;;;;;;4.57;75.31;97466.08;2179583;81;21419;-78
2021/03/12 03:28:34;;;;;;;39.43;24.93;;;;;;;4.58;75.17;97472.11;2179357;81;21177;-77
2021/03/12 03:31:35;;;;;;;42.83;25.83;;;;;;;4.61;75.24;97487.23;2178804;81;21146;-78
2021/03/12 03:34:36;;;;;;;39.97;26.33;;;;;;;4.69;75.16;97481.74;2179504;81;21268;-78
2021/03/12 03:37:41;;;;;;;40.90;26.17;;;;;;;4.72;74.97;97489.53;2179891;81;21245;-78
2021/03/12 03:40:42;;;;;;;43.30;25.57;;;;;;;4.70;74.93;97485.20;2180182;81;21233;-76
2021/03/12 03:43:43;;;;;;;41.77;24.93;;;;;;;4.68;75.16;97477.84;2179430;81;21078;-76
2021/03/12 03:46:44;;;;;;;39.93;23.70;;;;;;;4.68;75.02;97477.42;2179401;81;21102;-78
2021/03/12 03:49:45;;;;;;;42.37;27.17;;;;;;;4.73;75.14;97478.77;2178219;81;21121;-78
2021/03/12 03:52:46;;;;;;;41.57;26.03;;;;;;;4.74;75.03;97471.46;2178745;81;21110;-78
2021/03/12 03:55:47;;;;;;;46.90;28.63;;;;;;;4.72;75.12;97467.56;2179052;81;21541;-77
2021/03/12 03:58:49;;;;;;;44.57;26.73;;;;;;;4.73;74.97;97478.34;2179459;82;21094;-78
2021/03/12 04:01:50;;;;;;;45.93;29.27;;;;;;;4.73;75.11;97470.59;2179329;81;21130;-78
2021/03/12 04:04:51;;;;;;;46.57;28.67;;;;;;;4.74;75.09;97482.67;2179091;81;21384;-77
2021/03/12 04:07:52;;;;;;;41.97;28.77;;;;;;;4.77;75.06;97478.83;2178403;81;21157;-78
2021/03/12 04:10:53;;;;;;;44.83;30.53;;;;;;;4.79;75.18;97469.38;2178421;81;21154;-78
2021/03/12 04:13:54;;;;;;;49.70;32.23;;;;;;;4.78;74.98;97457.72;2178700;81;22185;-77
2021/03/12 04:16:55;;;;;;;47.83;31.57;;;;;;;4.75;75.43;97447.34;2178677;81;21499;-78
2021/03/12 04:19:56;;;;;;;47.73;30.30;;;;;;;4.72;75.30;97462.82;2178880;81;21181;-78
2021/03/12 04:22:57;;;;;;;49.20;31.57;;;;;;;4.70;75.36;97465.81;2179297;81;21138;-78
2021/03/12 04:25:58;;;;;;;51.83;32.97;;;;;;;4.71;75.57;97466.25;2178971;82;21300;-78
2021/03/12 04:28:59;;;;;;;50.83;34.07;;;;;;;4.68;75.66;97472.25;2179117;81;21158;-78
2021/03/12 04:32:01;;;;;;;46.07;32.17;;;;;;;4.67;75.40;97475.69;2178612;82;21122;-78
2021/03/12 04:35:02;;;;;;;41.23;27.27;;;;;;;4.66;75.27;97476.53;2177353;81;21133;-78
2021/03/12 04:38:03;;;;;;;41.33;27.63;;;;;;;4.68;75.40;97495.52;2177585;81;21257;-79
2021/03/12 04:41:04;;;;;;;47.77;30.70;;;;;;;4.71;75.62;97490.81;2176862;81;21277;-80
2021/03/12 04:44:05;;;;;;;47.60;30.37;;;;;;;4.69;75.36;97489.92;2176362;81;21598;-77
2021/03/12 04:47:06;;;;;;;38.10;26.70;;;;;;;4.69;75.44;97488.63;2176331;81;21211;-79
2021/03/12 04:50:07;;;;;;;39.93;26.57;;;;;;;4.77;75.82;97499.94;2175480;82;21141;-78
2021/03/12 04:53:08;;;;;;;42.67;28.10;;;;;;;4.79;75.53;97499.53;2175105;81;21268;-76
2021/03/12 04:56:09;;;;;;;38.60;27.17;;;;;;;4.78;75.55;97499.95;2172659;81;21288;-78
2021/03/12 04:59:10;;;;;;;42.03;27.87;;;;;;;4.79;75.82;97505.57;2174130;81;21297;-77
2021/03/12 05:02:11;;;;;;;39.07;26.37;;;;;;;4.79;75.92;97506.00;2174496;81;21173;-79
2021/03/12 05:05:12;;;;;;;31.23;23.73;;;;;;;4.80;76.06;97503.86;2173804;81;21283;-79
2021/03/12 05:08:13;;;;;;;41.47;25.03;;;;;;;4.81;75.82;97501.72;2174070;82;21272;-78
2021/03/12 05:11:14;;;;;;;39.80;26.50;;;;;;;4.81;75.77;97499.13;2174485;81;21257;-79
2021/03/12 05:14:15;;;;;;;42.63;27.63;;;;;;;4.83;75.79;97502.60;2175294;81;21110;-79
2021/03/12 05:17:17;;;;;;;40.23;25.73;;;;;;;4.86;75.68;97502.64;2174737;81;21138;-79
2021/03/12 05:20:18;;;;;;;23.27;13.33;;;;;;;4.89;75.83;97514.31;2173633;81;21276;-78
2021/03/12 05:23:19;;;;;;;34.33;19.10;;;;;;;6.78;83.28;97504.48;2173226;81;21276;-80
2021/03/12 05:26:20;;;;;;;40.53;25.63;;;;;;;9.20;76.74;97492.17;2175459;81;21354;-79
2021/03/12 05:29:21;;;;;;;40.07;24.27;;;;;;;10.12;70.09;97485.98;2175421;81;21166;-78
2021/03/12 05:32:22;;;;;;;39.73;25.37;;;;;;;10.49;68.36;97489.20;2175537;81;21468;-78
2021/03/12 05:35:23;;;;;;;39.27;25.93;;;;;;;10.85;67.51;97486.66;2175568;81;21143;-78
2021/03/12 05:38:24;;;;;;;37.27;26.17;;;;;;;11.33;66.16;97497.00;2175814;81;21269;-78
2021/03/12 05:41:25;;;;;;;39.67;27.53;;;;;;;11.85;64.79;97487.61;2174911;81;21706;-79
2021/03/12 05:44:26;;;;;;;39.07;26.50;;;;;;;11.75;61.69;97494.70;2176772;81;21255;-78
2021/03/12 05:47:27;;;;;;;36.03;24.43;;;;;;;11.81;59.27;97501.17;2174662;81;21292;-79
2021/03/12 05:50:28;;;;;;;42.60;30.93;;;;;;;11.93;58.42;97511.90;2172631;81;22072;-78
2021/03/12 05:53:29;;;;;;;43.43;29.53;;;;;;;11.48;59.95;97526.85;2173597;81;21277;-78
2021/03/12 05:56:30;;;;;;;41.20;28.77;;;;;;;11.52;60.64;97508.08;2172955;81;21174;-79
2021/03/12 05:59:32;;;;;;;20.30;15.33;;;;;;;11.59;60.70;97521.48;2174294;81;21257;-77
2021/03/12 06:02:33;;;;;;;23.43;16.53;;;;;;;10.17;59.08;97534.61;2172962;81;21256;-78
2021/03/12 06:05:34;;;;;;;47.27;30.90;;;;;;;8.53;63.37;97554.33;2173012;81;21248;-76
2021/03/12 06:08:36;;;;;;;33.10;22.10;;;;;;;7.46;65.26;97561.47;2172522;81;22180;-77
2021/03/12 06:11:37;;;;;;;26.50;19.43;;;;;;;6.85;68.01;97561.14;2172090;81;21276;-76
2021/03/12 06:14:38;;;;;;;26.10;18.07;;;;;;;6.31;70.92;97573.73;2172376;81;21134;-76
2021/03/12 06:17:39;;;;;;;28.93;19.47;;;;;;;6.31;70.92;97573.73;2173128;81;21150;-76
2021/03/12 06:20:40;;;;;;;24.93;17.07;;;;;;;6.08;71.45;97595.97;2171789;81;21134;-76
2021/03/12 06:23:42;;;;;;;30.10;19.10;;;;;;;5.85;72.84;97615.10;2173589;81;21265;-76
2021/03/12 06:26:43;;;;;;;31.43;20.87;;;;;;;5.69;73.44;97632.19;2173351;81;21134;-76
2021/03/12 06:29:46;;;;;;;38.90;22.13;;;;;;;5.56;73.21;97644.97;2172168;82;22206;-76
2021/03/12 06:32:47;;;;;;;33.73;20.57;;;;;;;5.50;74.88;97650.94;2173392;81;21177;-76
2021/03/12 06:35:49;;;;;;;36.03;21.70;;;;;;;5.45;75.66;97660.36;2174318;81;21590;-77
2021/03/12 06:38:50;;;;;;;35.83;20.27;;;;;;;5.43;74.55;97657.76;2173126;81;21296;-76
2021/03/12 06:41:51;;;;;;;30.97;19.67;;;;;;;5.40;75.46;97659.44;2173686;81;21268;-76
2021/03/12 06:44:52;;;;;;;37.70;23.20;;;;;;;5.47;74.95;97660.38;2174587;82;21237;-77
2021/03/12 06:47:53;;;;;;;37.40;21.00;;;;;;;5.55;74.62;97657.05;2160959;81;21162;-76
2021/03/12 06:50:55;;;;;;;42.07;25.87;;;;;;;5.66;74.72;97658.05;2155928;82;21154;-75
2021/03/12 06:53:56;;;;;;;40.37;26.07;;;;;;;5.73;74.61;97680.57;2156365;82;21099;-76
2021/03/12 06:56:57;;;;;;;41.70;25.60;;;;;;;5.71;74.98;97678.39;2155859;82;21320;-76
2021/03/12 06:59:58;;;;;;;37.40;24.07;;;;;;;5.75;74.52;97684.05;2156499;82;21103;-76
2021/03/12 07:02:59;;;;;;;26.13;17.80;;;;;;;5.80;74.46;97683.23;2156416;82;21269;-76
2021/03/12 07:06:00;;;;;;;20.80;15.63;;;;;;;5.89;74.37;97694.60;2155876;82;21126;-76
2021/03/12 07:09:01;;;;;;;22.17;16.50;;;;;;;6.00;74.27;97697.31;2156815;82;21158;-76
2021/03/12 07:12:02;;;;;;;18.70;13.97;;;;;;;6.08;74.20;97704.78;2157058;82;22096;-76
2021/03/12 07:15:04;;;;;;;22.30;15.40;;;;;;;6.11;73.99;97710.00;2156826;82;21099;-77
2021/03/12 07:18:05;;;;;;;16.20;13.20;;;;;;;6.28;73.77;97710.18;2157060;82;21326;-77
2021/03/12 07:21:06;;;;;;;27.00;15.83;;;;;;;6.41;73.63;97728.02;2157038;82;21254;-76
2021/03/12 07:24:07;;;;;;;23.47;15.43;;;;;;;6.38;73.43;97730.16;2157041;82;21979;-76
2021/03/12 07:27:08;;;;;;;20.50;14.47;;;;;;;6.49;73.54;97731.14;2156728;82;21308;-77
2021/03/12 07:30:09;;;;;;;18.63;13.30;;;;;;;6.54;73.15;97732.48;2157094;82;21130;-77
2021/03/12 07:33:10;;;;;;;26.53;17.03;;;;;;;6.62;72.89;97733.42;2156488;82;21293;-76
2021/03/12 07:36:11;;;;;;;22.10;15.80;;;;;;;6.59;72.74;97735.98;2156807;82;21563;-76
2021/03/12 07:39:13;;;;;;;99.60;46.63;;;;;;;6.50;72.92;97734.17;2157861;82;21130;-77
2021/03/12 07:42:14;;;;;;;26.77;19.67;;;;;;;6.80;74.41;97744.39;2156844;82;21158;-77
2021/03/12 07:45:15;;;;;;;26.53;18.60;;;;;;;6.90;72.70;97749.68;2157461;82;21253;-75
2021/03/12 07:48:16;;;;;;;26.27;20.47;;;;;;;6.78;72.35;97756.05;2157092;81;21503;-75
2021/03/12 07:51:17;;;;;;;27.93;21.80;;;;;;;6.61;72.59;97754.59;2157538;82;21519;-76
2021/03/12 07:54:18;;;;;;;30.43;21.20;;;;;;;6.58;72.75;97757.58;2156984;82;21166;-77
2021/03/12 07:57:19;;;;;;;27.47;18.57;;;;;;;6.53;72.85;97762.72;2156275;82;21541;-79
2021/03/12 08:00:20;;;;;;;34.23;20.37;;;;;;;6.42;72.98;97773.83;2157671;82;21273;-79
2021/03/12 08:03:21;;;;;;;40.47;23.23;;;;;;;6.23;73.82;97786.58;2156982;82;21282;-77
2021/03/12 08:06:23;;;;;;;22.63;15.77;;;;;;;6.12;74.16;97780.83;2155580;82;22049;-78
2021/03/12 08:09:24;;;;;;;24.00;15.03;;;;;;;5.93;74.80;97797.39;2156979;82;21391;-77
2021/03/12 08:12:25;;;;;;;20.83;15.10;;;;;;;5.74;74.58;97804.00;2157556;82;21276;-77
2021/03/12 08:15:26;;;;;;;22.40;14.90;;;;;;;5.59;74.92;97799.91;2156952;82;21115;-76
2021/03/12 08:18:27;;;;;;;23.43;16.17;;;;;;;5.51;75.05;97796.33;2155808;82;21351;-77
2021/03/12 08:21:30;;;;;;;25.23;16.93;;;;;;;5.44;75.34;97795.38;2156097;82;21570;-78
2021/03/12 08:24:31;;;;;;;37.10;25.40;;;;;;;5.55;75.50;97805.02;2157122;82;21261;-79
2021/03/12 08:27:34;;;;;;;37.90;22.50;;;;;;;5.62;75.50;97798.66;2158679;82;22015;-77
2021/03/12 08:30:35;;;;;;;36.37;22.03;;;;;;;5.64;75.53;97794.80;2156192;82;21460;-77
2021/03/12 08:33:36;;;;;;;41.10;24.87;;;;;;;5.68;75.93;97807.80;2155662;82;21261;-75
2021/03/12 08:36:38;;;;;;;46.87;24.00;;;;;;;5.67;75.83;97813.83;2156590;82;21245;-75
2021/03/12 08:39:39;;;;;;;30.77;18.40;;;;;;;5.79;75.84;97810.97;2156094;82;21488;-78
2021/03/12 08:42:40;;;;;;;21.67;14.47;;;;;;;5.90;75.77;97814.19;2156567;82;21265;-77
2021/03/12 08:45:41;;;;;;;25.87;16.17;;;;;;;6.01;75.46;97810.02;2157012;82;21304;-77
2021/03/12 08:48:42;;;;;;;30.00;15.50;;;;;;;6.12;75.24;97815.80;2156515;81;21146;-76
2021/03/12 08:51:43;;;;;;;27.30;14.43;;;;;;;6.20;74.93;97820.23;2156685;82;21604;-76
2021/03/12 08:54:44;;;;;;;15.53;12.27;;;;;;;6.30;74.65;97820.78;2156811;82;21282;-77
2021/03/12 08:57:46;;;;;;;14.87;9.90;;;;;;;6.30;74.30;97825.97;2155932;82;21138;-76
2021/03/12 09:00:47;;;;;;;19.87;11.43;;;;;;;6.22;74.40;97832.78;2155635;82;21130;-77
2021/03/12 09:03:48;;;;;;;19.27;11.20;;;;;;;6.02;75.13;97845.86;2154338;82;21257;-76
2021/03/12 09:06:49;;;;;;;19.03;12.43;;;;;;;5.91;75.13;97833.19;2154154;82;21727;-75
2021/03/12 09:09:50;;;;;;;13.93;10.60;;;;;;;5.96;74.71;97840.59;2155702;82;21276;-76
2021/03/12 09:12:51;;;;;;;13.83;9.30;;;;;;;5.89;75.00;97833.56;2156164;82;21599;-75
2021/03/12 09:15:52;;;;;;;8.63;5.97;;;;;;;5.91;74.57;97833.19;2157156;82;21242;-77
2021/03/12 09:18:54;;;;;;;15.63;9.13;;;;;;;6.11;74.22;97833.48;2156375;82;22153;-76
2021/03/12 09:21:55;;;;;;;21.47;11.10;;;;;;;6.31;74.03;97834.19;2155251;82;21103;-76
2021/03/12 09:24:56;;;;;;;29.67;16.97;;;;;;;6.58;73.60;97836.23;2156612;82;21249;-76
2021/03/12 09:27:57;;;;;;;33.57;19.20;;;;;;;6.85;73.65;97839.55;2156277;82;21281;-77
2021/03/12 09:30:58;;;;;;;26.23;16.60;;;;;;;6.98;72.98;97844.05;2157286;82;21268;-76
2021/03/12 09:33:59;;;;;;;13.70;9.37;;;;;;;6.98;72.98;97844.05;2158230;82;21272;-76
2021/03/12 09:37:01;;;;;;;17.10;11.83;;;;;;;6.78;73.26;97849.42;2156327;82;22020;-77
2021/03/12 09:40:03;;;;;;;28.10;17.47;;;;;;;6.54;73.93;97859.09;2155401;82;21280;-76
2021/03/12 09:43:04;;;;;;;34.17;17.07;;;;;;;6.54;73.93;97859.09;2156090;82;21150;-76
2021/03/12 09:46:05;;;;;;;29.67;17.60;;;;;;;6.30;74.44;97871.33;2156172;82;21099;-77
2021/03/12 09:49:07;;;;;;;18.57;12.03;;;;;;;6.13;75.28;97882.31;2170257;81;21299;-76
2021/03/12 09:52:08;;;;;;;16.63;10.90;;;;;;;5.91;76.62;97905.28;2173890;81;21126;-76
2021/03/12 09:55:09;;;;;;;12.47;8.73;;;;;;;5.71;77.61;97905.37;2175161;81;21917;-77
2021/03/12 09:58:10;;;;;;;12.07;5.73;;;;;;;5.43;76.59;97921.74;2174021;81;21308;-77
2021/03/12 10:01:11;;;;;;;10.17;6.60;;;;;;;4.99;76.00;97925.20;2173855;81;21261;-76
2021/03/12 10:04:12;;;;;;;12.33;6.73;;;;;;;4.66;76.95;97931.88;2173494;81;21145;-76
2021/03/12 10:07:13;;;;;;;10.30;7.27;;;;;;;4.51;77.44;97921.23;2173338;81;21554;-76
2021/03/12 10:10:14;;;;;;;12.87;8.33;;;;;;;4.54;77.56;97926.05;2172884;81;21244;-76
2021/03/12 10:13:15;;;;;;;16.50;11.70;;;;;;;4.70;77.22;97929.81;2173379;82;21114;-76
2021/03/12 10:16:16;;;;;;;11.60;8.63;;;;;;;4.79;77.06;97926.11;2174454;81;21094;-75
2021/03/12 10:19:17;;;;;;;10.17;6.30;;;;;;;4.82;77.12;97945.98;2172636;81;21268;-76
2021/03/12 10:22:18;;;;;;;14.57;6.90;;;;;;;4.70;77.29;97950.48;2172234;81;21723;-75
2021/03/12 10:25:19;;;;;;;10.63;6.33;;;;;;;4.55;77.33;97954.05;2172249;81;21122;-75
2021/03/12 10:28:20;;;;;;;6.87;4.80;;;;;;;4.47;77.27;97957.77;2173352;81;21816;-76
2021/03/12 10:31:21;;;;;;;5.33;3.63;;;;;;;4.36;77.57;97964.41;2173475;81;21575;-75
2021/03/12 10:34:23;;;;;;;20.50;10.47;;;;;;;4.22;77.18;97968.36;2172417;81;21260;-75
2021/03/12 10:37:24;;;;;;;8.13;4.60;;;;;;;4.12;77.59;97973.73;2173026;81;21534;-76
2021/03/12 10:40:25;;;;;;;9.73;5.30;;;;;;;4.01;77.63;97963.58;2173521;81;21237;-76
2021/03/12 10:43:27;;;;;;;11.13;7.07;;;;;;;3.95;77.88;97977.64;2173288;81;21170;-75
2021/03/12 10:46:28;;;;;;;11.20;6.47;;;;;;;4.00;77.65;97974.75;2172301;81;21746;-75
2021/03/12 10:49:31;;;;;;;8.47;6.20;;;;;;;4.25;77.93;97969.30;2160611;81;21162;-75
2021/03/12 10:52:32;;;;;;;8.53;5.80;;;;;;;4.30;77.49;97983.20;2157343;81;21264;-76
2021/03/12 10:55:33;;;;;;;10.70;6.77;;;;;;;4.43;77.33;97982.67;2156978;82;21122;-76
2021/03/12 10:58:34;;;;;;;7.87;5.70;;;;;;;4.77;76.84;97976.92;2157207;81;21293;-75
2021/03/12 11:01:35;;;;;;;5.83;4.57;;;;;;;5.36;76.55;97975.95;2155997;82;22065;-76
2021/03/12 11:04:38;;;;;;;8.87;4.03;;;;;;;5.51;75.40;97977.52;2156724;82;21147;-76
2021/03/12 11:07:39;;;;;;;7.40;6.70;;;;;;;5.33;75.56;97990.13;2157742;82;21289;-76
2021/03/12 11:10:40;;;;;;;5.37;4.13;;;;;;;5.30;76.04;97990.08;2156713;81;21256;-76
2021/03/12 11:13:41;;;;;;;10.87;4.60;;;;;;;5.29;75.47;97984.45;2156142;82;21630;-77
2021/03/12 11:16:42;;;;;;;9.50;6.33;;;;;;;5.19;75.88;97993.72;2158656;82;21324;-76
2021/03/12 11:19:44;;;;;;;7.47;5.90;;;;;;;5.19;76.27;97994.14;2158271;82;21143;-76
2021/03/12 11:22:45;;;;;;;8.00;6.13;;;;;;;5.37;75.95;97986.33;2159897;82;21265;-76
2021/03/12 11:25:46;;;;;;;7.40;4.87;;;;;;;5.39;75.92;97985.94;2158407;82;21379;-75
2021/03/12 11:28:48;;;;;;;8.40;7.13;;;;;;;5.37;75.74;97986.75;2156956;82;21277;-77
2021/03/12 11:31:49;;;;;;;8.83;6.43;;;;;;;5.27;76.08;97990.02;2156837;82;21115;-75
2021/03/12 11:34:50;;;;;;;11.50;7.50;;;;;;;5.28;76.21;98007.28;2157327;82;21452;-76
2021/03/12 11:37:51;;;;;;;13.00;8.20;;;;;;;5.24;76.29;98006.78;2157250;82;21767;-76
2021/03/12 11:40:52;;;;;;;13.03;8.20;;;;;;;5.23;76.35;98011.50;2157131;82;21137;-76
2021/03/12 11:43:53;;;;;;;16.77;11.73;;;;;;;5.19;76.56;98021.30;2157248;82;21118;-77
2021/03/12 11:46:54;;;;;;;19.90;11.67;;;;;;;5.17;76.58;98020.40;2157483;82;21214;-76
2021/03/12 11:49:55;;;;;;;25.83;11.93;;;;;;;5.19;76.59;98009.66;2157626;81;21539;-75
2021/03/12 11:52:56;;;;;;;21.07;11.57;;;;;;;5.24;76.49;98014.12;2157687;82;21453;-76
2021/03/12 11:55:57;;;;;;;24.63;13.43;;;;;;;5.68;76.28;98004.58;2157075;82;21261;-76
2021/03/12 11:58:59;;;;;;;28.30;15.40;;;;;;;5.68;76.28;98004.58;2157532;82;21273;-75
2021/03/12 12:02:01;;;;;;;31.20;14.13;;;;;;;6.01;75.31;97995.25;2156653;82;21107;-76
2021/03/12 12:05:03;;;;;;;27.27;14.07;;;;;;;6.11;75.25;98006.66;2156760;82;21415;-76
2021/03/12 12:08:04;;;;;;;19.07;10.10;;;;;;;6.15;75.04;98007.58;2156840;82;22145;-77
2021/03/12 12:11:05;;;;;;;19.33;11.30;;;;;;;6.18;74.31;97999.43;2156612;82;21134;-76
2021/03/12 12:14:06;;;;;;;16.73;9.67;;;;;;;6.49;74.43;98006.37;2157034;82;21257;-77
2021/03/12 12:17:07;;;;;;;666.83;422.10;;;;;;;6.87;73.82;97997.39;2155953;82;21123;-76
2021/03/12 12:20:08;;;;;;;10.67;6.83;;;;;;;7.20;75.19;98001.28;2156586;82;21307;-77
2021/03/12 12:23:09;;;;;;;8.00;5.70;;;;;;;7.50;70.40;97991.23;2156531;82;21712;-77
2021/03/12 12:26:10;;;;;;;6.43;5.27;;;;;;;7.58;70.86;98004.30;2156910;82;21264;-77
2021/03/12 12:29:12;;;;;;;8.00;5.67;;;;;;;7.64;70.25;98010.84;2156680;82;21161;-77
2021/03/12 12:32:13;;;;;;;9.70;5.33;;;;;;;7.45;69.67;98024.06;2156321;82;21243;-78
2021/03/12 12:35:14;;;;;;;10.33;5.63;;;;;;;7.29;69.14;98020.86;2156409;82;21233;-78
2021/03/12 12:38:15;;;;;;;8.63;6.20;;;;;;;7.29;69.14;98020.86;2156366;82;21272;-77
2021/03/12 12:41:16;;;;;;;7.47;5.93;;;;;;;7.39;68.12;98020.11;2155761;82;21155;-76
2021/03/12 12:44:17;;;;;;;10.33;6.60;;;;;;;7.33;67.92;98026.53;2155270;82;22085;-76
2021/03/12 12:47:18;;;;;;;8.10;6.23;;;;;;;7.28;69.06;98023.00;2155915;82;21551;-75
2021/03/12 12:50:19;;;;;;;7.10;5.40;;;;;;;7.31;68.54;98014.83;2156033;81;21171;-76
2021/03/12 12:53:21;;;;;;;11.70;7.90;;;;;;;7.43;68.41;98010.20;2158120;82;22081;-76
2021/03/12 12:56:22;;;;;;;8.57;6.10;;;;;;;7.62;69.14;98006.94;2156682;82;21115;-76
2021/03/12 12:59:23;;;;;;;9.70;6.63;;;;;;;7.71;67.08;98003.55;2156281;82;21659;-78
2021/03/12 13:02:24;;;;;;;8.23;5.27;;;;;;;7.74;67.29;98000.98;2155861;82;21150;-76
2021/03/12 13:05:25;;;;;;;9.00;6.70;;;;;;;7.49;66.65;97998.58;2154044;82;21282;-76
2021/03/12 13:08:26;;;;;;;9.33;6.50;;;;;;;7.35;67.64;98001.45;2154157;82;21273;-76
2021/03/12 13:11:27;;;;;;;9.27;6.00;;;;;;;7.34;67.05;98004.47;2154614;82;21273;-74
2021/03/12 13:14:28;;;;;;;9.93;7.00;;;;;;;7.33;66.97;98017.02;2155893;82;21264;-76
2021/03/12 13:17:29;;;;;;;10.27;7.93;;;;;;;7.26;67.79;98026.88;2155866;82;21134;-76
2021/03/12 13:20:31;;;;;;;11.20;8.13;;;;;;;7.07;68.21;98034.42;2155263;82;21261;-76
2021/03/12 13:23:34;;;;;;;14.27;10.67;;;;;;;6.92;69.58;98037.66;2155672;81;21272;-80
2021/03/12 13:26:35;;;;;;;15.60;9.83;;;;;;;6.86;70.59;98039.75;2156195;82;21261;-76
2021/03/12 13:29:36;;;;;;;10.63;7.57;;;;;;;6.95;70.94;98029.52;2156725;82;21284;-77
2021/03/12 13:32:37;;;;;;;13.47;8.20;;;;;;;7.17;71.06;98037.16;2156530;82;21143;-78
2021/03/12 13:35:38;;;;;;;15.80;9.27;;;;;;;7.46;71.42;98037.92;2155909;82;21249;-76
2021/03/12 13:38:40;;;;;;;16.20;9.97;;;;;;;7.63;71.31;98036.38;2156061;82;21400;-76
2021/03/12 13:41:41;;;;;;;22.67;14.23;;;;;;;7.75;70.68;98052.52;2156213;82;21281;-76
2021/03/12 13:44:43;;;;;;;12.17;8.87;;;;;;;7.63;70.41;98052.83;2157167;82;21461;-76
2021/03/12 13:47:45;;;;;;;6.60;5.83;;;;;;;7.50;71.11;98049.66;2157396;81;21570;-77
2021/03/12 13:50:47;;;;;;;9.30;5.90;;;;;;;7.35;71.17;98047.76;2166080;81;21177;-79
2021/03/12 13:53:48;;;;;;;10.50;7.90;;;;;;;7.25;71.04;98058.02;2167532;82;21248;-77
2021/03/12 13:56:49;;;;;;;8.13;7.00;;;;;;;7.03;70.98;98055.14;2168357;82;21265;-77
2021/03/12 13:59:50;;;;;;;11.60;6.57;;;;;;;6.91;71.26;98050.19;2167226;82;21174;-77
2021/03/12 14:02:54;;;;;;;10.63;8.27;;;;;;;7.00;71.36;98051.64;2165113;82;21407;-77
2021/03/12 14:05:55;;;;;;;11.57;7.80;;;;;;;7.14;70.40;98063.50;2164347;82;21464;-76
2021/03/12 14:08:56;;;;;;;14.80;8.93;;;;;;;7.64;69.70;98052.41;2164915;82;21324;-76